Time;durP1;ratioP1;P1;durP2;ratioP2;P2;SDS_P1;SDS_P2;PMS_P1;PMS_P2;Temp;Humidity;BMP_temperature;BMP_pressure;BME280_temperature;BME280_humidity;BME280_pressure;Samples;Min_cycle;Max_cycle;Signal;HPM_P1;HPM_P2
2021/04/05 00:03:31;;;;;;;41.25;16.98;;;10.40;77.80;;;;;;11993760;28;20037;-73
2021/04/05 00:09:17;;;;;;;33.75;15.73;;;10.40;77.00;;;;;;11999358;28;20048;-73
2021/04/05 00:15:06;;;;;;;42.67;16.77;;;10.40;76.90;;;;;;11984360;28;20072;-72
2021/04/05 00:20:57;;;;;;;36.65;15.38;;;10.30;76.50;;;;;;11995377;28;20048;-72
2021/04/05 00:26:43;;;;;;;33.03;15.90;;;10.20;76.40;;;;;;11992503;28;20065;-72
2021/04/05 00:32:30;;;;;;;40.30;16.30;;;10.10;76.60;;;;;;12009338;28;20049;-72
2021/04/05 00:38:17;;;;;;;32.80;15.30;;;10.10;76.20;;;;;;11987896;28;20064;-72
2021/04/05 00:44:04;;;;;;;38.05;16.63;;;10.20;76.20;;;;;;11984183;28;20057;-72
2021/04/05 00:49:51;;;;;;;32.67;15.77;;;10.10;76.70;;;;;;11985186;28;20049;-73
2021/04/05 00:55:40;;;;;;;39.88;16.08;;;10.00;76.30;;;;;;11994040;28;20092;-73
2021/04/05 01:01:28;;;;;;;36.53;15.43;;;10.10;76.10;;;;;;12006719;28;20049;-73
2021/04/05 01:07:14;;;;;;;33.25;15.65;;;10.00;76.10;;;;;;11995290;28;20049;-74
2021/04/05 01:13:01;;;;;;;34.60;14.95;;;9.80;76.70;;;;;;11998072;28;20065;-74
2021/04/05 01:18:48;;;;;;;45.08;18.02;;;9.80;77.20;;;;;;11998424;28;20662;-73
2021/04/05 01:24:35;;;;;;;41.22;17.02;;;9.70;78.00;;;;;;11992632;28;20048;-74
2021/04/05 01:30:28;;;;;;;35.65;15.32;;;9.60;78.00;;;;;;12002594;28;20424;-73
2021/04/05 01:36:16;;;;;;;35.37;15.53;;;9.70;77.50;;;;;;11990401;28;20095;-72
2021/04/05 01:42:05;;;;;;;36.85;16.23;;;9.60;77.30;;;;;;11999561;28;20073;-71
2021/04/05 01:47:51;;;;;;;42.85;15.73;;;9.60;77.30;;;;;;11992989;28;20053;-72
2021/04/05 01:53:39;;;;;;;32.67;14.77;;;9.60;77.40;;;;;;11992411;28;20052;-72
2021/04/05 01:59:26;;;;;;;36.08;15.40;;;9.60;76.60;;;;;;11996145;28;20380;-72
2021/04/05 02:05:16;;;;;;;35.45;14.73;;;9.60;77.10;;;;;;11990219;28;20053;-72
2021/04/05 02:11:07;;;;;;;36.25;15.60;;;9.60;77.20;;;;;;11994445;28;20045;-72
2021/04/05 02:16:54;;;;;;;43.97;16.08;;;9.60;76.60;;;;;;11994399;28;20045;-72
2021/04/05 02:22:43;;;;;;;34.22;14.95;;;9.60;77.40;;;;;;12005450;28;20057;-72
2021/04/05 02:28:31;;;;;;;37.75;15.00;;;9.40;78.00;;;;;;12001709;28;20044;-72
2021/04/05 02:34:18;;;;;;;39.53;15.40;;;9.40;77.80;;;;;;11997968;28;20048;-72
2021/04/05 02:40:06;;;;;;;46.78;17.17;;;9.40;77.10;;;;;;11996509;28;20053;-72
2021/04/05 02:45:52;;;;;;;39.15;15.35;;;9.40;77.80;;;;;;11993916;28;20124;-72
2021/04/05 02:51:44;;;;;;;41.97;15.73;;;9.40;77.70;;;;;;12002281;28;20052;-72
2021/04/05 02:57:33;;;;;;;43.58;16.63;;;9.50;77.80;;;;;;12003125;28;20048;-72
2021/04/05 03:03:19;;;;;;;38.25;14.77;;;9.40;77.50;;;;;;12001547;28;20045;-72
2021/04/05 03:09:07;;;;;;;42.33;16.00;;;9.40;77.40;;;;;;11994026;28;20040;-73
2021/04/05 03:14:55;;;;;;;44.90;16.00;;;9.40;77.80;;;;;;11994191;28;20565;-73
2021/04/05 03:20:42;;;;;;;38.45;14.80;;;9.40;77.80;;;;;;11999491;28;20053;-73
2021/04/05 03:26:29;;;;;;;40.25;15.73;;;9.40;78.10;;;;;;11991078;28;20052;-73
2021/04/05 03:32:18;;;;;;;37.03;14.32;;;9.40;80.10;;;;;;11993037;28;20049;-74
2021/04/05 03:38:05;;;;;;;34.88;14.50;;;9.30;80.00;;;;;;11995195;28;20099;-73
2021/04/05 03:43:59;;;;;;;39.17;14.27;;;9.20;79.80;;;;;;11988857;28;20496;-73
2021/04/05 03:49:51;;;;;;;35.60;12.88;;;9.20;80.10;;;;;;11987701;28;20512;-73
2021/04/05 03:55:40;;;;;;;26.25;11.27;;;9.10;81.20;;;;;;11991448;28;20063;-74
2021/04/05 04:01:30;;;;;;;42.00;13.52;;;9.10;79.30;;;;;;11996799;28;20049;-73
2021/04/05 04:07:24;;;;;;;40.33;12.75;;;9.10;78.90;;;;;;11993938;28;20052;-73
2021/04/05 04:13:11;;;;;;;32.92;12.80;;;9.10;79.20;;;;;;11982276;28;20049;-74
2021/04/05 04:19:01;;;;;;;34.28;12.90;;;9.10;79.80;;;;;;11992338;28;20057;-72
2021/04/05 04:24:48;;;;;;;36.40;11.95;;;9.10;79.70;;;;;;11987865;28;20521;-73
2021/04/05 04:30:36;;;;;;;32.00;12.73;;;9.00;79.80;;;;;;11992291;28;20052;-74
2021/04/05 07:19:18;;;;;;;40.58;14.05;;;6.70;94.50;;;;;;12123080;27;20712;-74
2021/04/05 07:25:07;;;;;;;39.92;14.93;;;7.10;94.80;;;;;;12124062;28;20094;-73
2021/04/05 07:31:06;;;;;;;32.03;12.90;;;7.50;94.10;;;;;;12133748;28;20062;-73
2021/04/05 07:37:04;;;;;;;43.38;15.10;;;7.70;94.40;;;;;;12128394;28;20066;-74
2021/04/05 07:42:59;;;;;;;38.45;15.18;;;8.20;93.80;;;;;;12127129;28;20051;-74
2021/04/05 07:48:55;;;;;;;39.55;15.38;;;8.40;93.70;;;;;;12128946;28;20483;-73
2021/04/05 07:54:45;;;;;;;46.00;15.48;;;8.60;93.50;;;;;;12127186;28;20483;-73
2021/04/05 08:00:40;;;;;;;40.65;16.00;;;8.70;93.40;;;;;;12123986;28;20052;-74
2021/04/05 08:06:34;;;;;;;52.60;16.83;;;8.70;93.60;;;;;;12123254;28;20497;-73
2021/04/05 08:12:32;;;;;;;48.83;17.02;;;8.70;94.30;;;;;;12125631;28;20055;-73
2021/04/05 08:18:27;;;;;;;52.05;18.35;;;8.70;94.50;;;;;;12130215;28;20139;-73
2021/04/05 08:24:22;;;;;;;52.15;18.10;;;8.70;95.00;;;;;;12128218;28;20043;-73
2021/04/05 08:30:21;;;;;;;40.67;17.27;;;8.80;95.10;;;;;;12101718;28;20057;-73
2021/04/05 08:36:15;;;;;;;46.30;17.17;;;8.90;95.30;;;;;;12092643;28;20517;-71
2021/04/05 08:42:09;;;;;;;59.88;19.95;;;9.10;95.30;;;;;;12097743;28;20525;-71
2021/04/05 08:48:04;;;;;;;52.63;18.65;;;9.50;94.80;;;;;;12088313;28;20051;-72
2021/04/05 08:53:55;;;;;;;42.47;17.45;;;9.80;94.40;;;;;;12086186;28;20131;-70
2021/04/05 08:59:48;;;;;;;47.28;17.38;;;10.00;94.20;;;;;;12093247;28;20055;-72
2021/04/05 09:05:41;;;;;;;47.35;17.63;;;10.00;94.10;;;;;;12089296;28;20084;-72
2021/04/05 09:11:29;;;;;;;48.90;17.25;;;10.00;94.30;;;;;;12092379;28;20496;-72
2021/04/05 09:17:35;;;;;;;48.50;18.27;;;10.10;94.10;;;;;;12090507;28;20101;-72
2021/04/05 09:23:44;;;;;;;47.63;17.30;;;10.00;94.60;;;;;;12091603;28;20055;-72
2021/04/05 09:29:39;;;;;;;44.67;18.15;;;9.90;94.70;;;;;;12090404;28;20051;-72
2021/04/05 09:35:39;;;;;;;46.28;18.35;;;10.00;94.80;;;;;;12093942;28;20040;-72
2021/04/05 09:41:54;;;;;;;46.88;17.65;;;10.20;94.80;;;;;;12092239;28;20045;-72
2021/04/05 09:48:03;;;;;;;45.05;17.13;;;10.10;95.20;;;;;;12090870;28;20047;-73
2021/04/05 09:54:03;;;;;;;46.42;17.92;;;10.20;95.20;;;;;;12089628;28;20052;-72
2021/04/05 09:59:54;;;;;;;45.10;18.50;;;10.00;95.80;;;;;;12086462;28;20140;-72
2021/04/05 10:05:45;;;;;;;40.85;17.77;;;10.10;95.80;;;;;;12085708;28;20048;-71
2021/04/05 10:11:36;;;;;;;43.15;17.52;;;10.00;96.30;;;;;;12092037;28;20048;-72
2021/04/05 10:17:25;;;;;;;52.25;20.52;;;9.80;96.60;;;;;;12083097;28;20050;-72
2021/04/05 10:23:15;;;;;;;56.40;18.98;;;10.10;96.60;;;;;;12087887;28;20578;-72
2021/04/05 10:29:03;;;;;;;49.75;19.42;;;10.20;96.60;;;;;;12081744;28;20407;-72
2021/04/05 10:34:55;;;;;;;50.97;19.58;;;10.70;96.10;;;;;;12087576;28;21800;-72
2021/04/05 10:40:41;;;;;;;40.83;18.95;;;10.90;95.70;;;;;;12086006;28;20104;-72
2021/04/05 10:46:30;;;;;;;48.00;18.88;;;11.10;95.20;;;;;;12086813;28;20035;-72
2021/04/05 10:52:22;;;;;;;49.25;18.25;;;11.10;94.90;;;;;;12090533;28;20048;-71
2021/04/05 10:58:14;;;;;;;42.30;18.17;;;10.90;94.90;;;;;;12089389;28;20048;-72
2021/04/05 11:04:06;;;;;;;47.00;16.20;;;10.70;95.50;;;;;;12080896;28;20051;-72
2021/04/05 11:09:58;;;;;;;54.63;18.13;;;10.90;95.20;;;;;;12074134;28;20059;-73
2021/04/05 11:15:46;;;;;;;34.83;16.58;;;11.10;95.20;;;;;;12089171;28;20052;-72
2021/04/05 11:21:38;;;;;;;51.70;17.95;;;11.10;95.40;;;;;;12086148;28;20391;-71
2021/04/05 11:27:28;;;;;;;40.17;17.02;;;11.20;95.20;;;;;;12077915;28;20671;-71
2021/04/05 11:33:16;;;;;;;41.55;17.88;;;11.40;94.80;;;;;;12085437;28;20066;-72
2021/04/05 11:39:08;;;;;;;39.10;15.10;;;11.40;94.70;;;;;;12092063;28;20036;-72
2021/04/05 11:44:56;;;;;;;39.13;14.63;;;11.40;94.50;;;;;;12086143;28;20040;-71
2021/04/05 11:50:43;;;;;;;36.85;14.70;;;11.50;94.40;;;;;;12087352;28;20055;-72
2021/04/05 11:56:33;;;;;;;35.10;12.18;;;11.10;94.40;;;;;;12096433;28;20048;-71
2021/04/05 12:02:28;;;;;;;23.75;6.97;;;10.80;94.90;;;;;;12090746;28;20519;-73
2021/04/05 12:08:21;;;;;;;21.23;5.97;;;9.40;97.70;;;;;;12090977;28;20048;-72
2021/04/05 12:14:10;;;;;;;30.77;6.53;;;8.90;98.10;;;;;;12093388;28;20054;-72
2021/04/05 12:19:59;;;;;;;23.08;6.43;;;9.00;98.90;;;;;;12098726;28;20052;-74
2021/04/05 12:25:51;;;;;;;21.38;6.22;;;9.00;98.10;;;;;;12094060;28;20049;-74
2021/04/05 12:31:38;;;;;;;25.00;7.15;;;9.20;98.80;;;;;;12094318;28;20058;-72
2021/04/05 12:37:29;;;;;;;21.02;7.00;;;9.20;98.60;;;;;;12093243;28;20055;-73
2021/04/05 12:43:17;;;;;;;24.35;7.75;;;9.40;98.20;;;;;;12091623;28;20056;-73
2021/04/05 12:49:04;;;;;;;22.42;7.43;;;9.30;98.70;;;;;;12096033;28;20044;-73
2021/04/05 12:54:53;;;;;;;36.53;7.80;;;9.60;98.10;;;;;;12096249;28;20063;-74
2021/04/05 13:00:41;;;;;;;28.85;8.00;;;9.50;98.10;;;;;;12091128;28;20051;-75
2021/04/05 13:06:37;;;;;;;25.17;6.90;;;9.70;97.90;;;;;;12092260;28;20439;-72
2021/04/05 13:12:28;;;;;;;23.67;7.18;;;9.70;96.80;;;;;;12084437;28;20477;-73
2021/04/05 13:18:25;;;;;;;26.90;7.43;;;9.80;96.80;;;;;;12093440;28;20048;-73
2021/04/05 13:24:15;;;;;;;28.92;7.55;;;10.00;96.10;;;;;;12087212;28;20071;-73
2021/04/05 13:30:05;;;;;;;22.85;7.15;;;10.20;96.10;;;;;;12090670;28;20055;-74
2021/04/05 13:36:02;;;;;;;24.67;7.82;;;10.60;95.70;;;;;;12086974;28;20427;-73
2021/04/05 13:41:50;;;;;;;24.05;7.15;;;10.70;94.90;;;;;;12088288;28;20056;-73
2021/04/05 13:47:42;;;;;;;24.90;7.93;;;10.80;93.90;;;;;;12093987;28;20055;-73
2021/04/05 13:53:32;;;;;;;20.58;6.38;;;10.40;94.60;;;;;;12088922;28;20093;-73
2021/04/05 13:59:20;;;;;;;18.63;6.30;;;10.60;94.70;;;;;;12095602;28;20040;-73
2021/04/05 14:05:15;;;;;;;21.10;6.93;;;10.60;94.20;;;;;;12089907;28;20044;-74
2021/04/05 14:11:06;;;;;;;22.35;6.45;;;10.40;93.60;;;;;;12066016;28;20514;-74
2021/04/05 14:16:58;;;;;;;20.65;6.65;;;10.50;93.40;;;;;;12070646;28;20612;-73
2021/04/05 14:22:52;;;;;;;27.48;6.57;;;10.60;93.30;;;;;;12076038;28;20052;-73
2021/04/05 14:28:41;;;;;;;;;;;10.50;92.00;;;;;;12072046;28;20056;-74
2021/04/05 14:34:31;;;;;;;17.05;6.00;;;10.20;91.50;;;;;;12076438;28;19924;-74
2021/04/05 14:40:22;;;;;;;18.05;6.10;;;9.80;91.20;;;;;;12070201;28;20079;-73
2021/04/05 14:46:12;;;;;;;30.60;9.20;;;9.70;91.10;;;;;;12075108;28;20759;-73
2021/04/05 14:52:01;;;;;;;16.90;5.38;;;9.70;91.80;;;;;;12073642;28;20052;-72
2021/04/05 14:57:51;;;;;;;22.70;6.22;;;9.60;91.10;;;;;;12074206;28;20048;-73
2021/04/05 15:03:37;;;;;;;32.85;10.23;;;9.20;92.40;;;;;;12072903;28;20079;-72
2021/04/05 15:09:26;;;;;;;26.83;8.50;;;9.30;93.60;;;;;;12070996;28;20049;-74
2021/04/05 15:15:17;;;;;;;21.42;6.35;;;9.30;92.90;;;;;;12073145;28;20514;-73
2021/04/05 15:21:06;;;;;;;20.65;6.80;;;9.40;92.80;;;;;;12074476;28;20047;-73
2021/04/05 15:26:58;;;;;;;28.13;7.13;;;9.40;92.20;;;;;;12074349;28;20079;-73
2021/04/05 15:32:48;;;;;;;19.75;6.75;;;9.50;92.00;;;;;;12079585;28;20121;-72
2021/04/05 15:38:36;;;;;;;20.05;5.82;;;9.60;91.80;;;;;;12084534;28;20067;-72
2021/04/05 15:44:25;;;;;;;24.50;5.18;;;9.60;90.70;;;;;;12084723;28;20040;-73
2021/04/05 15:50:18;;;;;;;23.77;5.63;;;9.50;88.10;;;;;;12081866;28;20047;-73
2021/04/05 15:56:09;;;;;;;19.08;6.20;;;9.50;87.60;;;;;;12081050;28;20135;-73
2021/04/05 16:01:58;;;;;;;22.50;5.95;;;9.40;86.00;;;;;;12080265;28;20044;-75
2021/04/05 16:07:53;;;;;;;20.67;6.35;;;9.60;85.70;;;;;;12078408;28;20041;-73
2021/04/05 16:13:45;;;;;;;23.70;4.90;;;9.80;86.20;;;;;;12077065;28;20067;-72
2021/04/05 16:19:48;;;;;;;17.48;5.45;;;9.70;84.60;;;;;;12084722;28;20044;-73
2021/04/05 16:25:40;;;;;;;22.83;5.50;;;9.80;84.00;;;;;;12079904;28;20071;-73
2021/04/05 16:31:32;;;;;;;20.42;6.55;;;10.00;83.80;;;;;;12081771;28;20068;-73
2021/04/05 16:37:26;;;;;;;21.30;6.55;;;10.10;84.50;;;;;;12078833;28;20048;-72
2021/04/05 16:43:23;;;;;;;12.57;3.70;;;9.80;84.70;;;;;;12081167;28;20060;-74
2021/04/05 16:49:14;;;;;;;13.02;5.00;;;9.30;86.30;;;;;;12075153;28;20554;-74
2021/04/05 16:55:03;;;;;;;16.88;4.47;;;9.10;85.90;;;;;;12079478;28;20075;-73
2021/04/05 17:00:51;;;;;;;14.05;5.40;;;8.90;86.30;;;;;;12078465;28;20483;-73
2021/04/05 17:06:46;;;;;;;16.98;5.53;;;8.70;86.80;;;;;;12079353;28;20056;-73
2021/04/05 17:12:36;;;;;;;20.63;5.78;;;8.80;84.60;;;;;;12078392;28;20052;-73
2021/04/05 17:18:28;;;;;;;16.75;5.90;;;9.00;86.00;;;;;;12076901;28;20055;-72
2021/04/05 17:24:15;;;;;;;15.32;5.53;;;9.20;85.40;;;;;;12075817;28;20533;-72
2021/04/05 17:30:08;;;;;;;16.92;6.15;;;9.20;84.40;;;;;;12072476;28;20470;-72
2021/04/05 17:36:07;;;;;;;13.57;6.07;;;9.00;84.30;;;;;;12077853;28;20085;-72
2021/04/05 17:42:02;;;;;;;24.02;7.95;;;8.90;85.40;;;;;;12074930;28;20072;-71
2021/04/05 17:48:04;;;;;;;22.40;6.97;;;9.20;86.50;;;;;;12077713;28;20826;-72
2021/04/05 17:53:57;;;;;;;18.00;6.60;;;9.40;85.00;;;;;;12077601;28;20421;-72
2021/04/05 17:59:56;;;;;;;22.77;7.72;;;9.40;84.40;;;;;;12076038;28;20155;-72
2021/04/05 18:05:54;;;;;;;22.92;8.25;;;9.50;84.50;;;;;;12078122;28;20048;-74
2021/04/05 18:11:49;;;;;;;16.05;6.82;;;9.50;85.10;;;;;;12074031;28;20109;-73
2021/04/05 18:18:05;;;;;;;18.10;6.28;;;9.40;83.20;;;;;;12074920;28;20059;-73
2021/04/05 18:24:17;;;;;;;20.77;8.30;;;9.30;83.40;;;;;;12077304;28;20048;-73
2021/04/05 18:30:12;;;;;;;25.85;8.90;;;9.40;83.00;;;;;;12076271;28;20055;-72
2021/04/05 18:36:05;;;;;;;19.42;6.20;;;9.30;83.60;;;;;;12073250;28;20067;-73
2021/04/05 18:41:53;;;;;;;16.10;6.20;;;9.00;81.60;;;;;;12073125;28;20074;-73
2021/04/05 18:47:48;;;;;;;11.27;4.25;;;8.90;80.10;;;;;;12075142;28;20339;-73
2021/04/05 18:53:43;;;;;;;13.50;4.35;;;8.60;77.60;;;;;;12073807;28;20056;-74
2021/04/05 18:59:34;;;;;;;12.38;4.15;;;8.70;76.90;;;;;;12071026;28;20063;-73
2021/04/05 19:05:27;;;;;;;19.33;4.60;;;8.70;76.70;;;;;;12074554;28;20056;-73
2021/04/05 19:11:25;;;;;;;16.87;3.83;;;8.60;77.10;;;;;;12070201;28;20051;-73
